createdAt,value
2017-10-02T00:18:38.429Z,98581.41
2017-10-02T00:39:17.942Z,98564.94
2017-10-02T00:59:53.578Z,98521.92
2017-10-02T01:20:40.293Z,98485.19
2017-10-02T01:23:13.763Z,98484.72
2017-10-02T01:25:55.459Z,98481.72
2017-10-02T01:28:27.000Z,98488.06
2017-10-02T01:30:55.396Z,98487.16
2017-10-02T01:33:24.683Z,98473.48
2017-10-02T01:35:53.099Z,98466.73
2017-10-02T01:38:23.588Z,98458.09
2017-10-02T01:40:55.357Z,98455.55
2017-10-02T01:43:24.659Z,98452.58
2017-10-02T01:45:53.991Z,98448.91
2017-10-02T01:48:22.359Z,98447.56
2017-10-02T01:51:01.647Z,98437.98
2017-10-02T01:53:32.875Z,98440.86
2017-10-02T01:56:01.432Z,98443.56
2017-10-02T01:58:29.830Z,98452.80
2017-10-02T02:00:58.460Z,98455.45
2017-10-02T02:03:26.835Z,98462.22
2017-10-02T02:05:55.187Z,98461.25
2017-10-02T02:08:23.541Z,98457.52
2017-10-02T02:10:54.188Z,98458.05
2017-10-02T02:13:22.737Z,98463.63
2017-10-02T02:15:52.077Z,98455.73
2017-10-02T02:18:21.641Z,98453.47
2017-10-02T02:20:51.640Z,98450.17
2017-10-02T02:23:21.154Z,98451.52
2017-10-02T02:25:49.813Z,98448.86
2017-10-02T02:28:18.227Z,98443.73
2017-10-02T02:30:47.315Z,98445.58
2017-10-02T02:33:15.653Z,98443.25
2017-10-02T02:35:43.985Z,98443.38
2017-10-02T02:38:13.295Z,98442.12
2017-10-02T02:40:42.655Z,98451.32
2017-10-02T02:43:10.993Z,98454.61
2017-10-02T02:45:41.520Z,98459.85
2017-10-02T02:48:10.850Z,98464.09
2017-10-02T02:50:39.184Z,98457.75
2017-10-02T02:53:08.490Z,98456.56
2017-10-02T02:55:37.809Z,98457.53
2017-10-02T02:58:07.078Z,98460.82
2017-10-02T03:00:35.789Z,98453.36
2017-10-02T03:03:05.106Z,98458.41
2017-10-02T03:05:34.722Z,98446.41
2017-10-02T03:08:03.091Z,98457.68
2017-10-02T03:10:33.600Z,98463.48
2017-10-02T03:13:02.920Z,98464.70
2017-10-02T03:15:32.195Z,98461.18
2017-10-02T03:18:00.596Z,98461.82
2017-10-02T03:20:29.899Z,98458.73
2017-10-02T03:22:59.182Z,98451.95
2017-10-02T03:25:28.491Z,98448.70
2017-10-02T03:27:56.864Z,98449.38
2017-10-02T03:30:26.779Z,98444.02
2017-10-02T03:32:56.096Z,98439.52
2017-10-02T03:35:24.492Z,98433.92
2017-10-02T03:37:52.856Z,98438.70
2017-10-02T03:40:22.135Z,98436.55
2017-10-02T03:42:51.264Z,98435.06
2017-10-02T03:45:24.730Z,98439.73
2017-10-02T03:47:55.535Z,98436.32
2017-10-02T03:50:23.972Z,98436.48
2017-10-02T03:52:53.272Z,98428.15
2017-10-02T03:55:22.615Z,98429.75
2017-10-02T03:57:50.931Z,98432.30
2017-10-02T04:00:19.432Z,98424.61
2017-10-02T04:02:52.915Z,98418.36
2017-10-02T04:05:21.334Z,98419.67
2017-10-02T04:07:51.826Z,98418.88
2017-10-02T04:10:20.241Z,98422.73
2017-10-02T04:12:50.755Z,98421.86
2017-10-02T04:15:20.049Z,98408.47
2017-10-02T04:17:49.684Z,98409.38
2017-10-02T04:20:21.412Z,98401.67
2017-10-02T04:22:50.054Z,98390.56
2017-10-02T04:25:18.474Z,98401.94
2017-10-02T04:27:46.905Z,98397.91
2017-10-02T04:30:15.264Z,98402.98
2017-10-02T04:32:45.780Z,98384.36
2017-10-02T04:35:14.927Z,98383.66
2017-10-02T04:37:43.264Z,98389.07
2017-10-02T04:40:12.389Z,98395.31
2017-10-02T04:42:41.035Z,98397.94
2017-10-02T04:45:10.126Z,98396.06
2017-10-02T04:47:38.480Z,98394.11
2017-10-02T04:50:06.796Z,98390.75
2017-10-02T04:52:35.144Z,98385.02
2017-10-02T04:55:03.476Z,98387.14
2017-10-02T04:57:31.887Z,98382.14
2017-10-02T05:00:00.281Z,98379.02
2017-10-02T05:02:28.675Z,98387.67
2017-10-02T05:04:57.024Z,98385.97
2017-10-02T05:07:25.347Z,98388.16
2017-10-02T05:09:53.696Z,98379.25
2017-10-02T05:12:22.017Z,98375.66
2017-10-02T05:14:51.764Z,98385.36
2017-10-02T05:17:20.567Z,98386.89
2017-10-02T05:19:49.335Z,98393.39
2017-10-02T05:22:17.979Z,98392.73
2017-10-02T05:24:47.208Z,98381.97
2017-10-02T05:27:16.085Z,98383.45
2017-10-02T05:29:44.671Z,98375.59
2017-10-02T05:32:13.316Z,98377.89
2017-10-02T05:34:42.942Z,98388.42
2017-10-02T05:37:11.412Z,98398.27
2017-10-02T05:39:40.114Z,98394.67
2017-10-02T05:42:08.631Z,98390.11
2017-10-02T05:44:37.083Z,98394.14
2017-10-02T05:47:06.199Z,98402.22
2017-10-02T05:49:35.566Z,98400.01
2017-10-02T05:52:03.901Z,98400.52
2017-10-02T05:54:32.422Z,98390.93
2017-10-02T05:57:00.922Z,98380.67
2017-10-02T05:59:29.590Z,98371.78
2017-10-02T06:01:58.215Z,98369.97
2017-10-02T06:04:26.822Z,98351.32
2017-10-02T06:06:55.391Z,98341.52
2017-10-02T06:09:23.921Z,98340.20
2017-10-02T06:11:52.655Z,98344.76
2017-10-02T06:14:22.464Z,98349.02
2017-10-02T06:16:51.120Z,98341.44
2017-10-02T06:19:19.676Z,98341.53
2017-10-02T06:21:48.115Z,98348.31
2017-10-02T06:24:16.660Z,98355.97
2017-10-02T06:26:45.162Z,98357.36
2017-10-02T06:29:13.622Z,98344.78
2017-10-02T06:31:42.352Z,98331.54
2017-10-02T06:34:11.013Z,98330.64
2017-10-02T06:36:39.581Z,98334.30
2017-10-02T06:39:07.974Z,98336.12
2017-10-02T06:41:36.559Z,98333.13
2017-10-02T06:44:05.531Z,98333.55
2017-10-02T06:46:33.842Z,98334.05
2017-10-02T06:49:02.176Z,98332.35
2017-10-02T06:51:30.511Z,98343.89
2017-10-02T06:53:58.893Z,98342.59
2017-10-02T06:56:27.231Z,98337.73
2017-10-02T06:58:55.998Z,98344.59
2017-10-02T07:01:24.326Z,98341.48
2017-10-02T07:03:52.648Z,98331.37
2017-10-02T07:06:20.979Z,98334.32
2017-10-02T07:08:49.309Z,98331.80
2017-10-02T07:11:17.654Z,98334.73
2017-10-02T07:13:45.988Z,98341.33
2017-10-02T07:16:14.341Z,98340.11
2017-10-02T07:18:42.683Z,98336.25
2017-10-02T07:21:11.066Z,98346.77
2017-10-02T07:23:39.425Z,98355.05
2017-10-02T07:26:07.756Z,98353.47
2017-10-02T07:28:36.881Z,98351.02
2017-10-02T07:31:05.202Z,98352.06
2017-10-02T07:33:33.585Z,98344.69
2017-10-02T07:36:01.916Z,98338.81
2017-10-02T07:38:30.254Z,98324.27
2017-10-02T07:40:59.381Z,98328.13
2017-10-02T07:43:27.717Z,98327.13
2017-10-02T07:45:56.070Z,98318.22
2017-10-02T07:48:24.396Z,98314.00
2017-10-02T07:50:53.524Z,98315.91
2017-10-02T07:53:21.910Z,98319.66
2017-10-02T07:55:50.263Z,98320.77
2017-10-02T07:58:18.615Z,98322.48
2017-10-02T08:00:46.960Z,98327.15
2017-10-02T08:03:15.309Z,98334.31
2017-10-02T08:05:43.627Z,98346.27
2017-10-02T08:08:11.978Z,98349.50
2017-10-02T08:10:40.300Z,98341.03
2017-10-02T08:13:08.629Z,98343.56
2017-10-02T08:15:36.977Z,98342.25
2017-10-02T08:18:06.063Z,98335.05
2017-10-02T08:20:34.402Z,98336.19
2017-10-02T08:23:02.731Z,98334.65
2017-10-02T08:25:31.082Z,98342.26
2017-10-02T08:27:59.394Z,98329.20
2017-10-02T08:30:28.489Z,98333.37
2017-10-02T08:32:57.563Z,98323.95
2017-10-02T08:35:25.893Z,98310.11
2017-10-02T08:37:54.235Z,98319.18
2017-10-02T08:40:22.564Z,98315.14
2017-10-02T08:42:50.916Z,98308.78
2017-10-02T08:45:19.237Z,98303.70
2017-10-02T08:47:47.554Z,98304.73
2017-10-02T08:50:15.904Z,98306.33
2017-10-02T08:52:44.224Z,98314.22
2017-10-02T08:55:12.561Z,98308.47
2017-10-02T08:57:40.874Z,98302.29
2017-10-02T09:00:10.008Z,98299.06
2017-10-02T09:02:38.365Z,98303.31
2017-10-02T09:05:06.693Z,98306.43
2017-10-02T09:07:35.043Z,98306.02
2017-10-02T09:10:03.389Z,98309.36
2017-10-02T09:12:32.511Z,98319.98
2017-10-02T09:15:00.823Z,98328.78
2017-10-02T09:17:29.174Z,98322.51
2017-10-02T09:19:57.507Z,98324.73
2017-10-02T09:22:25.839Z,98318.03
2017-10-02T09:24:54.301Z,98317.83
2017-10-02T09:27:22.673Z,98314.57
2017-10-02T09:29:51.789Z,98322.16
2017-10-02T09:32:20.101Z,98324.59
2017-10-02T09:34:48.761Z,98325.60
2017-10-02T09:37:17.096Z,98317.52
2017-10-02T09:39:46.193Z,98310.31
2017-10-02T09:42:14.532Z,98288.52
2017-10-02T09:44:42.877Z,98286.19
2017-10-02T09:47:11.227Z,98288.59
2017-10-02T09:49:39.560Z,98284.86
2017-10-02T09:52:08.242Z,98287.78
2017-10-02T09:54:36.554Z,98291.33
2017-10-02T09:57:04.874Z,98302.34
2017-10-02T09:59:33.214Z,98301.42
2017-10-02T10:02:01.530Z,98304.88
2017-10-02T10:04:30.648Z,98300.27
2017-10-02T10:06:58.968Z,98305.84
2017-10-02T10:09:27.350Z,98298.92
2017-10-02T10:11:55.671Z,98303.98
2017-10-02T10:14:24.032Z,98312.98
2017-10-02T10:16:53.131Z,98314.45
2017-10-02T10:19:22.245Z,98320.11
2017-10-02T10:21:51.361Z,98320.61
2017-10-02T10:24:19.695Z,98309.63
2017-10-02T10:26:48.052Z,98314.02
2017-10-02T10:29:16.377Z,98301.50
2017-10-02T10:31:44.698Z,98304.40
2017-10-02T10:34:13.818Z,98313.70
2017-10-02T10:36:42.176Z,98310.44
2017-10-02T10:39:10.510Z,98302.34
2017-10-02T10:41:38.840Z,98296.73
2017-10-02T10:44:08.015Z,98310.20
2017-10-02T10:46:36.331Z,98308.72
2017-10-02T10:49:04.667Z,98308.63
2017-10-02T10:51:33.022Z,98305.75
2017-10-02T10:54:01.333Z,98309.61
2017-10-02T10:56:29.668Z,98306.54
2017-10-02T10:58:57.998Z,98295.04
2017-10-02T11:01:26.373Z,98289.80
2017-10-02T11:03:54.708Z,98297.99
2017-10-02T11:06:23.791Z,98293.15
2017-10-02T11:08:52.128Z,98293.12
2017-10-02T11:11:20.458Z,98300.91
2017-10-02T11:13:49.572Z,98300.05
2017-10-02T11:16:17.895Z,98304.09
2017-10-02T11:18:46.246Z,98300.05
2017-10-02T11:21:14.569Z,98293.66
2017-10-02T11:23:42.912Z,98285.91
2017-10-02T11:26:11.731Z,98279.48
2017-10-02T11:28:40.043Z,98266.55
2017-10-02T11:31:09.234Z,98260.46
2017-10-02T11:33:37.572Z,98255.92
2017-10-02T11:36:05.899Z,98244.69
2017-10-02T11:38:34.224Z,98245.66
2017-10-02T11:41:02.590Z,98225.59
2017-10-02T11:43:30.936Z,98223.95
2017-10-02T11:46:00.058Z,98227.70
2017-10-02T11:48:28.402Z,98203.02
2017-10-02T11:50:56.748Z,98193.42
2017-10-02T11:53:25.095Z,98184.14
2017-10-02T11:55:53.429Z,98186.84
2017-10-02T11:58:21.764Z,98187.14
2017-10-02T12:00:50.506Z,98195.58
2017-10-02T12:03:18.868Z,98192.70
2017-10-02T12:05:47.278Z,98200.80
2017-10-02T12:08:16.366Z,98205.33
2017-10-02T12:10:44.704Z,98215.28
2017-10-02T12:13:13.123Z,98212.59
2017-10-02T12:15:41.471Z,98216.58
2017-10-02T12:18:09.795Z,98218.41
2017-10-02T12:20:38.907Z,98230.96
2017-10-02T12:23:07.272Z,98232.38
2017-10-02T12:25:36.366Z,98237.05
2017-10-02T12:28:04.698Z,98233.60
2017-10-02T12:30:33.786Z,98237.92
2017-10-02T12:33:02.122Z,98240.33
2017-10-02T12:35:30.470Z,98241.44
2017-10-02T12:37:59.630Z,98241.80
2017-10-02T12:40:27.987Z,98252.39
2017-10-02T12:42:57.073Z,98265.65
2017-10-02T12:45:26.174Z,98262.27
2017-10-02T12:47:54.521Z,98257.64
2017-10-02T12:50:22.865Z,98262.77
2017-10-02T12:52:51.178Z,98266.17
2017-10-02T12:55:19.528Z,98272.89
2017-10-02T12:57:47.882Z,98272.73
2017-10-02T13:00:16.974Z,98268.06
2017-10-02T13:02:45.298Z,98270.36
2017-10-02T13:05:13.623Z,98271.17
2017-10-02T13:07:42.734Z,98265.08
2017-10-02T13:10:11.068Z,98263.59
2017-10-02T13:12:39.388Z,98253.13
2017-10-02T13:15:08.504Z,98240.92
2017-10-02T13:17:36.842Z,98237.57
2017-10-02T13:20:06.106Z,98241.09
2017-10-02T13:22:34.424Z,98235.19
2017-10-02T13:25:03.536Z,98234.36
2017-10-02T13:27:31.869Z,98243.16
2017-10-02T13:30:00.213Z,98250.72
2017-10-02T13:32:28.568Z,98255.69
2017-10-02T13:34:57.667Z,98257.88
2017-10-02T13:37:26.002Z,98250.41
2017-10-02T13:39:54.323Z,98247.81
2017-10-02T13:42:23.431Z,98245.89
2017-10-02T13:44:51.769Z,98231.29
2017-10-02T13:47:20.099Z,98226.67
2017-10-02T13:49:48.436Z,98218.33
2017-10-02T13:52:16.750Z,98209.52
2017-10-02T13:54:45.103Z,98200.15
2017-10-02T13:57:13.429Z,98198.23
2017-10-02T13:59:41.807Z,98189.05
2017-10-02T14:02:10.169Z,98190.94
2017-10-02T14:04:38.513Z,98202.89
2017-10-02T14:07:06.849Z,98198.71
2017-10-02T14:09:35.168Z,98197.69
2017-10-02T14:12:03.909Z,98202.92
2017-10-02T14:14:32.231Z,98191.98
2017-10-02T14:17:00.561Z,98187.25
2017-10-02T14:19:28.896Z,98178.53
2017-10-02T14:21:57.231Z,98175.53
2017-10-02T14:24:25.577Z,98184.87
2017-10-02T14:26:53.903Z,98184.68
2017-10-02T14:29:22.518Z,98187.60
2017-10-02T14:31:50.973Z,98197.80
2017-10-02T14:34:19.290Z,98196.48
2017-10-02T14:36:47.723Z,98198.42
2017-10-02T14:39:16.058Z,98196.83
2017-10-02T14:41:45.401Z,98203.56
2017-10-02T14:44:14.660Z,98198.03
2017-10-02T14:46:44.389Z,98194.28
2017-10-02T14:49:13.889Z,98206.14
2017-10-02T14:51:43.182Z,98205.03
2017-10-02T14:54:12.516Z,98209.70
2017-10-02T14:56:40.898Z,98203.20
2017-10-02T14:59:09.304Z,98203.30
2017-10-02T15:01:39.433Z,98207.43
2017-10-02T15:04:07.872Z,98206.81
2017-10-02T15:06:37.803Z,98210.48
2017-10-02T15:09:07.522Z,98218.58
2017-10-02T15:11:37.942Z,98219.28
2017-10-02T15:14:07.627Z,98219.14
2017-10-02T15:16:38.717Z,98218.52
2017-10-02T15:19:07.834Z,98208.41
2017-10-02T15:21:37.279Z,98202.60
2017-10-02T15:24:07.130Z,98200.95
2017-10-02T15:26:37.036Z,98206.00
2017-10-02T15:29:06.539Z,98196.17
2017-10-02T15:31:40.284Z,98191.27
2017-10-02T15:34:09.969Z,98181.41
2017-10-02T15:36:41.233Z,98169.25
2017-10-02T15:39:13.430Z,98176.45
2017-10-02T15:41:43.756Z,98164.55
2017-10-02T15:44:13.319Z,98168.56
2017-10-02T15:46:50.749Z,98177.09
2017-10-02T15:49:28.694Z,98194.50
2017-10-02T15:52:06.324Z,98204.52
2017-10-02T15:54:40.720Z,98205.66
2017-10-02T15:57:18.959Z,98206.41
2017-10-02T15:59:57.342Z,98206.46
2017-10-02T16:02:30.716Z,98208.23
2017-10-02T16:05:09.182Z,98213.88
2017-10-02T16:07:42.682Z,98210.62
2017-10-02T16:10:20.543Z,98208.19
2017-10-02T16:12:51.364Z,98199.23
2017-10-02T16:15:25.576Z,98197.72
2017-10-02T16:18:02.181Z,98205.84
2017-10-02T16:20:39.782Z,98212.10
2017-10-02T16:23:18.875Z,98212.51
2017-10-02T16:25:49.050Z,98220.09
2017-10-02T16:28:29.545Z,98232.45
2017-10-02T16:30:58.611Z,98240.00
2017-10-02T16:33:27.032Z,98234.22
2017-10-02T16:35:56.346Z,98233.60
2017-10-02T16:38:25.673Z,98234.52
2017-10-02T16:40:54.961Z,98249.32
2017-10-02T16:43:25.504Z,98251.55
2017-10-02T16:45:56.023Z,98253.78
2017-10-02T16:48:25.387Z,98257.09
2017-10-02T16:50:55.857Z,98247.37
2017-10-02T16:53:24.226Z,98251.28
2017-10-02T16:55:53.539Z,98249.03
2017-10-02T16:58:21.947Z,98246.83
2017-10-02T17:00:50.353Z,98239.52
2017-10-02T17:03:18.678Z,98240.69
2017-10-02T17:05:48.042Z,98242.87
2017-10-02T17:08:17.575Z,98242.36
2017-10-02T17:10:48.180Z,98246.63
2017-10-02T17:13:17.715Z,98246.11
2017-10-02T17:15:52.440Z,98246.16
2017-10-02T17:18:26.139Z,98246.94
2017-10-02T17:20:55.729Z,98247.06
2017-10-02T17:23:24.137Z,98243.21
2017-10-02T17:25:52.513Z,98258.25
2017-10-02T17:28:21.831Z,98258.80
2017-10-02T17:30:50.212Z,98265.64
2017-10-02T17:33:18.556Z,98262.34
2017-10-02T17:35:46.950Z,98266.41
2017-10-02T17:38:16.066Z,98264.61
2017-10-02T17:40:44.446Z,98265.47
2017-10-02T17:43:13.565Z,98266.89
2017-10-02T17:45:41.888Z,98260.67
2017-10-02T17:48:10.500Z,98262.30
2017-10-02T17:50:39.650Z,98257.97
2017-10-02T17:53:07.990Z,98261.36
2017-10-02T17:55:36.359Z,98261.80
2017-10-02T17:58:05.453Z,98264.28
2017-10-02T18:00:34.575Z,98259.17
2017-10-02T18:03:02.911Z,98260.33
2017-10-02T18:05:31.265Z,98255.96
2017-10-02T18:07:59.620Z,98266.79
2017-10-02T18:10:27.981Z,98275.66
2017-10-02T18:12:56.296Z,98277.48
2017-10-02T18:15:24.625Z,98281.24
2017-10-02T18:17:53.718Z,98281.48
2017-10-02T18:20:22.803Z,98273.63
2017-10-02T18:22:51.929Z,98269.40
2017-10-02T18:25:20.256Z,98267.61
2017-10-02T18:27:48.638Z,98263.95
2017-10-02T18:30:16.964Z,98268.18
2017-10-02T18:32:45.298Z,98268.31
2017-10-02T18:35:13.648Z,98264.63
2017-10-02T18:37:42.018Z,98267.30
2017-10-02T18:40:10.354Z,98271.63
2017-10-02T18:42:38.719Z,98268.69
2017-10-02T18:45:07.060Z,98273.97
2017-10-02T18:47:35.398Z,98273.16
2017-10-02T18:50:04.521Z,98280.56
2017-10-02T18:52:32.865Z,98273.66
2017-10-02T18:55:01.247Z,98282.12
2017-10-02T18:57:29.606Z,98284.45
2017-10-02T18:59:57.977Z,98276.97
2017-10-02T19:02:26.343Z,98279.78
2017-10-02T19:04:54.688Z,98277.52
2017-10-02T19:07:23.770Z,98276.84
2017-10-02T19:09:52.864Z,98281.54
2017-10-02T19:12:21.982Z,98277.85
2017-10-02T19:14:50.332Z,98278.91
2017-10-02T19:17:19.398Z,98265.84
2017-10-02T19:19:47.721Z,98265.98
2017-10-02T19:22:16.842Z,98268.08
2017-10-02T19:24:45.180Z,98264.32
2017-10-02T19:27:13.536Z,98268.58
2017-10-02T19:29:41.861Z,98267.91
2017-10-02T19:32:11.213Z,98265.67
2017-10-02T19:34:39.535Z,98259.48
2017-10-02T19:37:08.624Z,98255.28
2017-10-02T19:39:36.970Z,98249.53
2017-10-02T19:42:06.056Z,98244.39
2017-10-02T19:44:34.418Z,98244.22
2017-10-02T19:47:02.739Z,98239.19
2017-10-02T19:49:31.091Z,98236.75
2017-10-02T19:51:59.415Z,98241.04
2017-10-02T19:54:28.056Z,98232.72
2017-10-02T19:56:56.403Z,98235.66
2017-10-02T19:59:24.743Z,98231.81
2017-10-02T20:01:53.117Z,98238.64
2017-10-02T20:04:21.512Z,98233.50
2017-10-02T20:06:50.722Z,98229.84
2017-10-02T20:09:19.880Z,98232.21
2017-10-02T20:11:48.240Z,98228.05
2017-10-02T20:14:16.596Z,98221.69
2017-10-02T20:16:44.978Z,98209.83
2017-10-02T20:19:14.076Z,98223.59
2017-10-02T20:21:43.211Z,98217.60
2017-10-02T20:24:11.540Z,98218.68
2017-10-02T20:26:41.005Z,98204.03
2017-10-02T20:29:09.315Z,98209.48
2017-10-02T20:31:37.648Z,98206.98
2017-10-02T20:34:06.016Z,98210.80
2017-10-02T20:36:34.360Z,98210.36
2017-10-02T20:39:03.476Z,98207.55
2017-10-02T20:41:32.564Z,98210.33
2017-10-02T20:44:01.672Z,98199.77
2017-10-02T20:46:30.758Z,98203.26
2017-10-02T20:48:59.864Z,98199.27
2017-10-02T20:51:28.964Z,98201.83
2017-10-02T20:53:57.329Z,98196.05
2017-10-02T20:56:26.445Z,98201.91
2017-10-02T20:58:54.771Z,98198.73
2017-10-02T21:01:23.116Z,98193.45
2017-10-02T21:03:51.437Z,98197.34
2017-10-02T21:06:19.791Z,98205.39
2017-10-02T21:08:48.114Z,98187.43
2017-10-02T21:11:17.202Z,98180.94
2017-10-02T21:13:45.561Z,98173.13
2017-10-02T21:16:13.899Z,98181.98
2017-10-02T21:18:43.075Z,98178.59
2017-10-02T21:21:12.186Z,98177.69
2017-10-02T21:23:40.530Z,98183.80
2017-10-02T21:26:08.869Z,98174.64
2017-10-02T21:28:37.212Z,98179.14
2017-10-02T21:31:06.320Z,98182.55
2017-10-02T21:33:34.689Z,98182.28
2017-10-02T21:36:03.771Z,98183.60
2017-10-02T21:38:32.098Z,98183.16
2017-10-02T21:41:00.446Z,98175.85
2017-10-02T21:43:29.546Z,98165.20
2017-10-02T21:45:58.670Z,98173.05
2017-10-02T21:48:27.010Z,98166.69
2017-10-02T21:50:56.107Z,98158.94
2017-10-02T21:53:25.200Z,98144.61
2017-10-02T21:55:54.318Z,98149.29
2017-10-02T21:58:22.653Z,98156.61
2017-10-02T22:00:51.011Z,98168.38
2017-10-02T22:03:19.353Z,98167.38
2017-10-02T22:05:48.437Z,98149.78
2017-10-02T22:08:17.600Z,98137.19
2017-10-02T22:10:45.930Z,98138.06
2017-10-02T22:13:14.280Z,98136.55
2017-10-02T22:15:42.599Z,98144.86
2017-10-02T22:18:10.935Z,98138.83
2017-10-02T22:20:39.300Z,98133.29
2017-10-02T22:23:07.635Z,98138.61
2017-10-02T22:25:35.964Z,98147.47
2017-10-02T22:28:04.322Z,98152.46
2017-10-02T22:30:32.644Z,98142.94
2017-10-02T22:33:01.730Z,98145.09
2017-10-02T22:35:30.072Z,98138.89
2017-10-02T22:37:58.378Z,98145.34
2017-10-02T22:40:26.718Z,98150.89
2017-10-02T22:42:55.050Z,98162.93
2017-10-02T22:45:23.402Z,98163.70
2017-10-02T22:47:51.736Z,98156.39
2017-10-02T22:50:20.069Z,98146.23
2017-10-02T22:52:48.410Z,98144.59
2017-10-02T22:55:16.752Z,98145.64
2017-10-02T22:57:45.867Z,98140.17
2017-10-02T23:00:14.960Z,98135.88
2017-10-02T23:02:43.326Z,98146.94
2017-10-02T23:05:12.434Z,98157.83
2017-10-02T23:07:41.585Z,98145.39
2017-10-02T23:10:09.911Z,98143.25
2017-10-02T23:12:39.064Z,98135.31
2017-10-02T23:15:07.411Z,98135.79
2017-10-02T23:17:35.733Z,98138.55
2017-10-02T23:20:04.076Z,98143.17
2017-10-02T23:22:32.401Z,98158.47
2017-10-02T23:25:00.748Z,98149.73
2017-10-02T23:27:29.073Z,98142.81
2017-10-02T23:29:58.184Z,98146.06
2017-10-02T23:32:27.270Z,98143.69
2017-10-02T23:34:56.651Z,98152.66
2017-10-02T23:37:24.976Z,98150.55
2017-10-02T23:39:53.290Z,98134.36
2017-10-02T23:42:21.618Z,98135.88
2017-10-02T23:44:50.709Z,98130.33
2017-10-02T23:47:19.824Z,98127.55
2017-10-02T23:49:48.898Z,98128.05
2017-10-02T23:52:18.004Z,98110.98
2017-10-02T23:54:47.104Z,98088.59
2017-10-02T23:57:16.208Z,98090.08
2017-10-02T23:59:44.557Z,98090.91
